Nome, AK

9:37 PM AKST on February 27, 2015 (GMT -0900)
Nome | Change Station
CLOSE
Current Station
Airport
Location: Nome,
Elevation: 36 ft
Nearby Weather Stations

Elev 36 ft 64.51 °N, 165.45 °W | Updated 44 minutes ago

Overcast
Overcast
30 °F
Feels Like 18 °F
N
18
Wind Variable Wind from SSE
Gusts 28 mph

Today
High -- | Low -- °F
--% Chance of Precip.
Yesterday
High -- | Low -- °F
Precip. -- in
9:17 AM 7:12 PM
Waxing Gibbous, 75% visible
Pressure 29.95 in
Visibility 10.0 miles
Clouds Overcast 600 ft
Windchill 18 °F
Dew Point 30 °F
Humidity 100%
Rainfall 0.04 in
Snow Depth Not available.
UV 0 out of 12
Pollen Not available.
Air Quality Not available.
Flu Activity Not available.
METAR PAOM 280553Z 16016G24KT 10SM OVC006 M01/M01 A2994 RMK AO2 SLP140 SNE39 4/010 P0000 60003 I6000 T10111011 11011 21017 56024

More Conditions Fewer Conditions

Pressure 29.95 in
Visibility 10.0 miles
Clouds Overcast 600 ft
Windchill 18 °F
Dew Point 30 °F
Humidity 100%
Rainfall 0.04 in
Snow Depth Not available.
UV 0 out of 12
Pollen Not available.
Air Quality Not available.
Flu Activity Not available.
METAR PAOM 280553Z 16016G24KT 10SM OVC006 M01/M01 A2994 RMK AO2 SLP140 SNE39 4/010 P0000 60003 I6000 T10111011 11011 21017 56024

More Conditions Fewer Conditions

10-Day Weather Forecast

Almanac

Astronomy

Feb. 27, 2015 Rise Set
Actual Time
Civil Twilight
Nautical Twilight
Astronomical Twilight
Moon
Length of Visible Light
Length of Day
Tomorrow will be .
, % of the Moon is Illuminated

Today's Extremes

State Highs State Lows

Community

WunderPhotos

Upload Photos

1,800,974 photos uploaded!

WunderBlogs® & News

Nearby

Air Quality

  Air Quality AQ Index Pollutant
Not available.

Snow Depth

Station Depth Elevation

Earthquake Activity

City Distance Mag. Time & Date
Minimum magnitude displayed is 2.5.

Coastal Water Temperatures

Place Temperature

Nearby Weather Stations